sensor_id;sensor_type;location;lat;lon;timestamp;P1;durP1;ratioP1;P2;durP2;ratioP2
22871;SDS011;11603;44.910;8.630;2022-12-07T00:01:33;245.55;;;43.55;;
22871;SDS011;11603;44.910;8.630;2022-12-07T00:04:02;201.27;;;41.05;;
22871;SDS011;11603;44.910;8.630;2022-12-07T00:06:52;196.88;;;40.83;;
22871;SDS011;11603;44.910;8.630;2022-12-07T00:09:17;162.32;;;39.70;;
22871;SDS011;11603;44.910;8.630;2022-12-07T00:11:44;122.90;;;41.28;;
22871;SDS011;11603;44.910;8.630;2022-12-07T00:14:14;127.93;;;41.17;;
22871;SDS011;11603;44.910;8.630;2022-12-07T00:16:41;145.52;;;42.28;;
22871;SDS011;11603;44.910;8.630;2022-12-07T00:19:08;147.15;;;40.38;;
22871;SDS011;11603;44.910;8.630;2022-12-07T00:21:35;95.07;;;41.25;;
22871;SDS011;11603;44.910;8.630;2022-12-07T00:24:02;114.10;;;40.30;;
22871;SDS011;11603;44.910;8.630;2022-12-07T00:26:30;196.43;;;42.25;;
22871;SDS011;11603;44.910;8.630;2022-12-07T00:29:03;181.25;;;41.47;;
22871;SDS011;11603;44.910;8.630;2022-12-07T00:31:36;126.55;;;41.45;;
22871;SDS011;11603;44.910;8.630;2022-12-07T00:34:06;235.27;;;41.20;;
22871;SDS011;11603;44.910;8.630;2022-12-07T00:36:36;172.35;;;39.65;;
22871;SDS011;11603;44.910;8.630;2022-12-07T00:39:01;190.60;;;39.03;;
22871;SDS011;11603;44.910;8.630;2022-12-07T00:41:27;147.13;;;37.65;;
22871;SDS011;11603;44.910;8.630;2022-12-07T00:43:54;171.68;;;40.28;;
22871;SDS011;11603;44.910;8.630;2022-12-07T00:46:20;165.88;;;41.20;;
22871;SDS011;11603;44.910;8.630;2022-12-07T00:48:46;124.32;;;41.38;;
22871;SDS011;11603;44.910;8.630;2022-12-07T00:51:13;140.65;;;40.20;;
22871;SDS011;11603;44.910;8.630;2022-12-07T00:53:40;141.40;;;37.88;;
22871;SDS011;11603;44.910;8.630;2022-12-07T00:56:07;137.90;;;39.90;;
22871;SDS011;11603;44.910;8.630;2022-12-07T00:58:53;139.25;;;37.97;;
22871;SDS011;11603;44.910;8.630;2022-12-07T01:01:24;117.35;;;39.88;;
22871;SDS011;11603;44.910;8.630;2022-12-07T01:03:51;147.27;;;39.13;;
22871;SDS011;11603;44.910;8.630;2022-12-07T01:06:17;146.88;;;38.70;;
22871;SDS011;11603;44.910;8.630;2022-12-07T01:08:44;130.85;;;38.08;;
22871;SDS011;11603;44.910;8.630;2022-12-07T01:11:11;158.02;;;40.90;;
22871;SDS011;11603;44.910;8.630;2022-12-07T01:13:40;100.10;;;37.00;;
22871;SDS011;11603;44.910;8.630;2022-12-07T01:16:05;143.52;;;37.53;;
22871;SDS011;11603;44.910;8.630;2022-12-07T01:18:33;134.85;;;37.45;;
22871;SDS011;11603;44.910;8.630;2022-12-07T01:21:22;125.55;;;37.72;;
22871;SDS011;11603;44.910;8.630;2022-12-07T01:23:50;106.13;;;38.47;;
22871;SDS011;11603;44.910;8.630;2022-12-07T01:26:17;100.78;;;38.22;;
22871;SDS011;11603;44.910;8.630;2022-12-07T01:28:45;99.30;;;36.67;;
22871;SDS011;11603;44.910;8.630;2022-12-07T01:31:11;126.65;;;36.85;;
22871;SDS011;11603;44.910;8.630;2022-12-07T01:33:43;136.88;;;37.00;;
22871;SDS011;11603;44.910;8.630;2022-12-07T01:36:14;101.95;;;35.30;;
22871;SDS011;11603;44.910;8.630;2022-12-07T01:38:42;131.95;;;36.63;;
22871;SDS011;11603;44.910;8.630;2022-12-07T01:41:08;109.95;;;38.10;;
22871;SDS011;11603;44.910;8.630;2022-12-07T01:43:34;110.82;;;36.25;;
22871;SDS011;11603;44.910;8.630;2022-12-07T01:46:00;140.75;;;37.35;;
22871;SDS011;11603;44.910;8.630;2022-12-07T01:48:37;125.70;;;36.95;;
22871;SDS011;11603;44.910;8.630;2022-12-07T01:51:05;108.70;;;36.92;;
22871;SDS011;11603;44.910;8.630;2022-12-07T01:53:35;154.50;;;38.63;;
22871;SDS011;11603;44.910;8.630;2022-12-07T01:56:03;114.03;;;37.05;;
22871;SDS011;11603;44.910;8.630;2022-12-07T01:58:31;145.90;;;37.88;;
22871;SDS011;11603;44.910;8.630;2022-12-07T02:00:56;170.23;;;38.47;;
22871;SDS011;11603;44.910;8.630;2022-12-07T02:03:24;189.27;;;40.40;;
22871;SDS011;11603;44.910;8.630;2022-12-07T02:05:56;124.03;;;37.75;;
22871;SDS011;11603;44.910;8.630;2022-12-07T02:08:24;132.55;;;38.80;;
22871;SDS011;11603;44.910;8.630;2022-12-07T02:10:50;123.00;;;39.20;;
22871;SDS011;11603;44.910;8.630;2022-12-07T02:13:19;118.05;;;38.42;;
22871;SDS011;11603;44.910;8.630;2022-12-07T02:16:01;91.75;;;37.60;;
22871;SDS011;11603;44.910;8.630;2022-12-07T02:29:53;101.55;;;38.03;;
22871;SDS011;11603;44.910;8.630;2022-12-07T02:32:48;86.22;;;38.35;;
22871;SDS011;11603;44.910;8.630;2022-12-07T02:41:10;88.20;;;31.80;;
22871;SDS011;11603;44.910;8.630;2022-12-07T02:46:09;101.38;;;33.25;;
22871;SDS011;11603;44.910;8.630;2022-12-07T02:48:39;92.53;;;34.58;;
22871;SDS011;11603;44.910;8.630;2022-12-07T02:51:07;88.40;;;35.38;;
22871;SDS011;11603;44.910;8.630;2022-12-07T02:53:42;101.03;;;35.05;;
22871;SDS011;11603;44.910;8.630;2022-12-07T02:58:45;76.80;;;34.30;;
22871;SDS011;11603;44.910;8.630;2022-12-07T03:01:28;80.38;;;34.83;;
22871;SDS011;11603;44.910;8.630;2022-12-07T03:04:08;83.32;;;35.83;;
22871;SDS011;11603;44.910;8.630;2022-12-07T03:06:50;72.95;;;32.65;;
22871;SDS011;11603;44.910;8.630;2022-12-07T03:09:26;79.55;;;34.55;;
22871;SDS011;11603;44.910;8.630;2022-12-07T03:12:10;108.60;;;36.30;;
22871;SDS011;11603;44.910;8.630;2022-12-07T03:14:43;144.50;;;37.17;;
22871;SDS011;11603;44.910;8.630;2022-12-07T03:17:33;110.95;;;37.33;;
22871;SDS011;11603;44.910;8.630;2022-12-07T03:20:03;158.10;;;36.35;;
22871;SDS011;11603;44.910;8.630;2022-12-07T03:22:31;128.25;;;36.45;;
22871;SDS011;11603;44.910;8.630;2022-12-07T03:25:01;111.20;;;35.78;;
22871;SDS011;11603;44.910;8.630;2022-12-07T03:27:36;127.72;;;36.13;;
22871;SDS011;11603;44.910;8.630;2022-12-07T03:30:08;118.50;;;35.47;;
22871;SDS011;11603;44.910;8.630;2022-12-07T03:35:42;100.13;;;35.13;;
22871;SDS011;11603;44.910;8.630;2022-12-07T03:38:30;94.05;;;32.58;;
22871;SDS011;11603;44.910;8.630;2022-12-07T03:43:40;109.32;;;33.78;;
22871;SDS011;11603;44.910;8.630;2022-12-07T03:51:56;78.85;;;34.20;;
22871;SDS011;11603;44.910;8.630;2022-12-07T03:54:35;74.68;;;34.70;;
22871;SDS011;11603;44.910;8.630;2022-12-07T03:57:05;85.05;;;32.58;;
22871;SDS011;11603;44.910;8.630;2022-12-07T03:59:33;57.33;;;33.28;;
22871;SDS011;11603;44.910;8.630;2022-12-07T04:02:03;63.55;;;34.85;;
22871;SDS011;11603;44.910;8.630;2022-12-07T04:04:30;70.40;;;32.92;;
22871;SDS011;11603;44.910;8.630;2022-12-07T04:06:55;59.47;;;33.90;;
22871;SDS011;11603;44.910;8.630;2022-12-07T04:09:21;105.57;;;33.85;;
22871;SDS011;11603;44.910;8.630;2022-12-07T04:11:47;79.55;;;31.33;;
22871;SDS011;11603;44.910;8.630;2022-12-07T04:14:12;68.10;;;31.25;;
22871;SDS011;11603;44.910;8.630;2022-12-07T04:16:47;81.75;;;32.65;;
22871;SDS011;11603;44.910;8.630;2022-12-07T04:19:14;67.10;;;33.15;;
22871;SDS011;11603;44.910;8.630;2022-12-07T04:21:41;71.53;;;32.22;;
22871;SDS011;11603;44.910;8.630;2022-12-07T04:24:07;56.97;;;32.55;;
22871;SDS011;11603;44.910;8.630;2022-12-07T04:26:33;72.13;;;32.88;;
22871;SDS011;11603;44.910;8.630;2022-12-07T04:28:58;80.57;;;32.05;;
22871;SDS011;11603;44.910;8.630;2022-12-07T04:31:24;105.50;;;33.63;;
22871;SDS011;11603;44.910;8.630;2022-12-07T04:33:49;101.63;;;35.42;;
22871;SDS011;11603;44.910;8.630;2022-12-07T04:36:15;96.72;;;34.85;;
22871;SDS011;11603;44.910;8.630;2022-12-07T04:38:40;98.47;;;36.85;;
22871;SDS011;11603;44.910;8.630;2022-12-07T04:41:06;91.60;;;36.83;;
22871;SDS011;11603;44.910;8.630;2022-12-07T04:43:33;129.30;;;39.25;;
22871;SDS011;11603;44.910;8.630;2022-12-07T04:45:59;113.50;;;39.33;;
22871;SDS011;11603;44.910;8.630;2022-12-07T04:48:25;88.10;;;38.08;;
22871;SDS011;11603;44.910;8.630;2022-12-07T04:50:50;113.82;;;37.97;;
22871;SDS011;11603;44.910;8.630;2022-12-07T04:53:15;112.32;;;39.17;;
22871;SDS011;11603;44.910;8.630;2022-12-07T04:55:41;104.93;;;36.53;;
22871;SDS011;11603;44.910;8.630;2022-12-07T04:58:06;121.10;;;38.30;;
22871;SDS011;11603;44.910;8.630;2022-12-07T05:00:32;104.43;;;36.65;;
22871;SDS011;11603;44.910;8.630;2022-12-07T05:02:58;87.50;;;36.92;;
22871;SDS011;11603;44.910;8.630;2022-12-07T05:05:23;124.93;;;37.45;;
22871;SDS011;11603;44.910;8.630;2022-12-07T05:07:49;108.57;;;37.58;;
22871;SDS011;11603;44.910;8.630;2022-12-07T05:10:15;84.88;;;36.20;;
22871;SDS011;11603;44.910;8.630;2022-12-07T05:12:41;88.28;;;37.72;;
22871;SDS011;11603;44.910;8.630;2022-12-07T05:15:07;85.50;;;37.38;;
22871;SDS011;11603;44.910;8.630;2022-12-07T05:17:32;86.00;;;37.08;;
22871;SDS011;11603;44.910;8.630;2022-12-07T05:19:58;92.90;;;40.17;;
22871;SDS011;11603;44.910;8.630;2022-12-07T05:22:24;73.63;;;38.88;;
22871;SDS011;11603;44.910;8.630;2022-12-07T05:24:53;72.30;;;40.00;;
22871;SDS011;11603;44.910;8.630;2022-12-07T05:27:19;72.55;;;39.10;;
22871;SDS011;11603;44.910;8.630;2022-12-07T05:29:45;78.78;;;39.75;;
22871;SDS011;11603;44.910;8.630;2022-12-07T05:32:11;83.15;;;40.10;;
22871;SDS011;11603;44.910;8.630;2022-12-07T05:34:36;72.82;;;38.83;;
22871;SDS011;11603;44.910;8.630;2022-12-07T05:37:02;64.93;;;36.75;;
22871;SDS011;11603;44.910;8.630;2022-12-07T05:39:28;73.93;;;38.03;;
22871;SDS011;11603;44.910;8.630;2022-12-07T05:41:53;68.80;;;37.08;;
22871;SDS011;11603;44.910;8.630;2022-12-07T05:44:37;78.10;;;38.60;;
22871;SDS011;11603;44.910;8.630;2022-12-07T05:47:03;76.93;;;37.95;;
22871;SDS011;11603;44.910;8.630;2022-12-07T05:49:29;75.82;;;39.50;;
22871;SDS011;11603;44.910;8.630;2022-12-07T05:51:55;79.15;;;39.42;;
22871;SDS011;11603;44.910;8.630;2022-12-07T05:54:21;78.07;;;39.22;;
22871;SDS011;11603;44.910;8.630;2022-12-07T05:56:46;70.82;;;36.35;;
22871;SDS011;11603;44.910;8.630;2022-12-07T05:59:12;79.78;;;38.10;;
22871;SDS011;11603;44.910;8.630;2022-12-07T06:01:52;71.35;;;38.10;;
22871;SDS011;11603;44.910;8.630;2022-12-07T06:04:23;60.90;;;35.08;;
22871;SDS011;11603;44.910;8.630;2022-12-07T06:06:50;57.47;;;35.03;;
22871;SDS011;11603;44.910;8.630;2022-12-07T06:09:16;56.22;;;34.33;;
22871;SDS011;11603;44.910;8.630;2022-12-07T06:11:45;57.58;;;35.00;;
22871;SDS011;11603;44.910;8.630;2022-12-07T06:14:29;63.63;;;33.80;;
22871;SDS011;11603;44.910;8.630;2022-12-07T06:16:55;52.75;;;34.20;;
22871;SDS011;11603;44.910;8.630;2022-12-07T06:19:20;55.17;;;35.15;;
22871;SDS011;11603;44.910;8.630;2022-12-07T06:21:46;56.47;;;35.65;;
22871;SDS011;11603;44.910;8.630;2022-12-07T06:24:12;54.30;;;32.72;;
22871;SDS011;11603;44.910;8.630;2022-12-07T06:26:38;50.05;;;33.17;;
22871;SDS011;11603;44.910;8.630;2022-12-07T06:29:04;52.38;;;34.03;;
22871;SDS011;11603;44.910;8.630;2022-12-07T06:31:30;52.10;;;33.55;;
22871;SDS011;11603;44.910;8.630;2022-12-07T06:33:59;56.47;;;36.13;;
22871;SDS011;11603;44.910;8.630;2022-12-07T06:36:25;50.97;;;32.90;;
22871;SDS011;11603;44.910;8.630;2022-12-07T06:38:51;53.90;;;33.35;;
22871;SDS011;11603;44.910;8.630;2022-12-07T06:41:17;52.92;;;33.45;;
22871;SDS011;11603;44.910;8.630;2022-12-07T06:43:42;50.83;;;33.15;;
22871;SDS011;11603;44.910;8.630;2022-12-07T06:46:08;47.95;;;33.35;;
22871;SDS011;11603;44.910;8.630;2022-12-07T06:48:33;46.90;;;31.23;;
22871;SDS011;11603;44.910;8.630;2022-12-07T06:50:59;51.83;;;31.98;;
22871;SDS011;11603;44.910;8.630;2022-12-07T06:53:24;55.50;;;32.28;;
22871;SDS011;11603;44.910;8.630;2022-12-07T06:55:50;45.97;;;31.23;;
22871;SDS011;11603;44.910;8.630;2022-12-07T06:58:17;44.90;;;31.17;;
22871;SDS011;11603;44.910;8.630;2022-12-07T07:00:43;42.33;;;29.65;;
22871;SDS011;11603;44.910;8.630;2022-12-07T07:03:09;42.70;;;29.58;;
22871;SDS011;11603;44.910;8.630;2022-12-07T07:05:34;44.20;;;30.27;;
22871;SDS011;11603;44.910;8.630;2022-12-07T07:08:00;48.15;;;30.55;;
22871;SDS011;11603;44.910;8.630;2022-12-07T07:10:26;43.63;;;30.80;;
22871;SDS011;11603;44.910;8.630;2022-12-07T07:12:52;39.83;;;28.33;;
22871;SDS011;11603;44.910;8.630;2022-12-07T07:15:17;40.53;;;29.15;;
22871;SDS011;11603;44.910;8.630;2022-12-07T07:17:43;40.75;;;28.38;;
22871;SDS011;11603;44.910;8.630;2022-12-07T07:20:08;44.42;;;29.55;;
22871;SDS011;11603;44.910;8.630;2022-12-07T07:22:34;41.00;;;28.98;;
22871;SDS011;11603;44.910;8.630;2022-12-07T07:25:00;41.28;;;28.85;;
22871;SDS011;11603;44.910;8.630;2022-12-07T07:27:25;38.45;;;28.35;;
22871;SDS011;11603;44.910;8.630;2022-12-07T07:29:52;40.53;;;29.20;;
22871;SDS011;11603;44.910;8.630;2022-12-07T07:32:18;41.22;;;29.80;;
22871;SDS011;11603;44.910;8.630;2022-12-07T07:34:43;41.60;;;29.50;;
22871;SDS011;11603;44.910;8.630;2022-12-07T07:37:08;42.10;;;29.48;;
22871;SDS011;11603;44.910;8.630;2022-12-07T07:39:36;38.78;;;29.15;;
22871;SDS011;11603;44.910;8.630;2022-12-07T07:42:01;45.80;;;31.85;;
22871;SDS011;11603;44.910;8.630;2022-12-07T07:44:27;45.33;;;30.63;;
22871;SDS011;11603;44.910;8.630;2022-12-07T07:46:52;44.38;;;30.75;;
22871;SDS011;11603;44.910;8.630;2022-12-07T07:49:18;45.58;;;31.25;;
22871;SDS011;11603;44.910;8.630;2022-12-07T07:51:43;51.00;;;31.33;;
22871;SDS011;11603;44.910;8.630;2022-12-07T07:54:09;44.30;;;29.70;;
22871;SDS011;11603;44.910;8.630;2022-12-07T07:56:35;46.85;;;30.60;;
22871;SDS011;11603;44.910;8.630;2022-12-07T07:59:00;45.15;;;30.33;;
22871;SDS011;11603;44.910;8.630;2022-12-07T08:01:25;44.00;;;29.70;;
22871;SDS011;11603;44.910;8.630;2022-12-07T08:03:51;41.72;;;30.05;;
22871;SDS011;11603;44.910;8.630;2022-12-07T08:06:16;43.55;;;29.15;;
22871;SDS011;11603;44.910;8.630;2022-12-07T08:08:42;42.40;;;30.08;;
22871;SDS011;11603;44.910;8.630;2022-12-07T08:11:08;42.95;;;30.05;;
22871;SDS011;11603;44.910;8.630;2022-12-07T08:13:34;40.03;;;28.75;;
22871;SDS011;11603;44.910;8.630;2022-12-07T08:16:04;42.45;;;29.13;;
22871;SDS011;11603;44.910;8.630;2022-12-07T08:18:34;41.45;;;28.85;;
22871;SDS011;11603;44.910;8.630;2022-12-07T08:21:01;43.80;;;28.98;;
22871;SDS011;11603;44.910;8.630;2022-12-07T08:23:27;39.38;;;27.75;;
22871;SDS011;11603;44.910;8.630;2022-12-07T08:25:53;38.20;;;27.90;;
22871;SDS011;11603;44.910;8.630;2022-12-07T08:28:19;36.08;;;27.35;;
22871;SDS011;11603;44.910;8.630;2022-12-07T08:30:44;48.47;;;29.48;;
22871;SDS011;11603;44.910;8.630;2022-12-07T08:33:10;38.67;;;27.65;;
22871;SDS011;11603;44.910;8.630;2022-12-07T08:35:36;39.97;;;28.20;;
22871;SDS011;11603;44.910;8.630;2022-12-07T08:38:02;40.88;;;27.73;;
22871;SDS011;11603;44.910;8.630;2022-12-07T08:40:28;41.38;;;28.40;;
22871;SDS011;11603;44.910;8.630;2022-12-07T08:42:54;42.88;;;27.75;;
22871;SDS011;11603;44.910;8.630;2022-12-07T08:45:20;41.75;;;27.50;;
22871;SDS011;11603;44.910;8.630;2022-12-07T08:47:49;37.55;;;26.80;;
22871;SDS011;11603;44.910;8.630;2022-12-07T08:50:17;38.97;;;27.05;;
22871;SDS011;11603;44.910;8.630;2022-12-07T08:52:43;36.03;;;25.95;;
22871;SDS011;11603;44.910;8.630;2022-12-07T08:55:09;36.78;;;26.88;;
22871;SDS011;11603;44.910;8.630;2022-12-07T08:57:36;37.10;;;26.95;;
22871;SDS011;11603;44.910;8.630;2022-12-07T09:00:03;34.58;;;25.98;;
22871;SDS011;11603;44.910;8.630;2022-12-07T09:02:30;35.60;;;26.42;;
22871;SDS011;11603;44.910;8.630;2022-12-07T09:04:56;34.55;;;27.55;;
22871;SDS011;11603;44.910;8.630;2022-12-07T09:07:22;39.72;;;27.77;;
22871;SDS011;11603;44.910;8.630;2022-12-07T09:09:48;37.55;;;27.35;;
22871;SDS011;11603;44.910;8.630;2022-12-07T09:12:13;34.90;;;26.40;;
22871;SDS011;11603;44.910;8.630;2022-12-07T09:14:39;39.80;;;27.73;;
22871;SDS011;11603;44.910;8.630;2022-12-07T09:17:08;37.33;;;27.02;;
22871;SDS011;11603;44.910;8.630;2022-12-07T09:19:36;36.90;;;26.77;;
22871;SDS011;11603;44.910;8.630;2022-12-07T09:22:02;37.25;;;28.38;;
22871;SDS011;11603;44.910;8.630;2022-12-07T09:24:27;37.95;;;27.38;;
22871;SDS011;11603;44.910;8.630;2022-12-07T09:26:53;37.90;;;28.48;;
22871;SDS011;11603;44.910;8.630;2022-12-07T09:29:18;38.42;;;26.80;;
22871;SDS011;11603;44.910;8.630;2022-12-07T09:31:44;42.47;;;27.42;;
22871;SDS011;11603;44.910;8.630;2022-12-07T09:34:10;38.83;;;28.45;;
22871;SDS011;11603;44.910;8.630;2022-12-07T09:36:36;39.80;;;28.35;;
22871;SDS011;11603;44.910;8.630;2022-12-07T09:39:01;37.75;;;28.60;;
22871;SDS011;11603;44.910;8.630;2022-12-07T09:41:29;40.33;;;28.67;;
22871;SDS011;11603;44.910;8.630;2022-12-07T09:44:04;37.33;;;27.65;;
22871;SDS011;11603;44.910;8.630;2022-12-07T09:46:34;36.47;;;27.33;;
22871;SDS011;11603;44.910;8.630;2022-12-07T09:49:02;41.35;;;27.73;;
22871;SDS011;11603;44.910;8.630;2022-12-07T09:51:28;40.10;;;27.90;;
22871;SDS011;11603;44.910;8.630;2022-12-07T09:53:54;39.22;;;27.48;;
22871;SDS011;11603;44.910;8.630;2022-12-07T09:56:22;40.85;;;26.83;;
22871;SDS011;11603;44.910;8.630;2022-12-07T09:58:49;36.60;;;26.88;;
22871;SDS011;11603;44.910;8.630;2022-12-07T10:01:22;42.75;;;27.70;;
22871;SDS011;11603;44.910;8.630;2022-12-07T10:03:55;37.22;;;27.08;;
22871;SDS011;11603;44.910;8.630;2022-12-07T10:06:26;40.85;;;28.77;;
22871;SDS011;11603;44.910;8.630;2022-12-07T10:08:52;39.00;;;28.00;;
22871;SDS011;11603;44.910;8.630;2022-12-07T10:11:17;37.35;;;27.80;;
22871;SDS011;11603;44.910;8.630;2022-12-07T10:13:47;40.83;;;27.92;;
22871;SDS011;11603;44.910;8.630;2022-12-07T10:18:51;37.58;;;28.40;;
22871;SDS011;11603;44.910;8.630;2022-12-07T10:21:18;41.63;;;29.45;;
22871;SDS011;11603;44.910;8.630;2022-12-07T10:24:13;42.92;;;29.85;;
22871;SDS011;11603;44.910;8.630;2022-12-07T10:26:41;46.50;;;31.23;;
22871;SDS011;11603;44.910;8.630;2022-12-07T10:31:46;48.25;;;31.88;;
22871;SDS011;11603;44.910;8.630;2022-12-07T10:34:23;46.55;;;30.70;;
22871;SDS011;11603;44.910;8.630;2022-12-07T10:36:49;48.33;;;30.30;;
22871;SDS011;11603;44.910;8.630;2022-12-07T10:39:17;46.15;;;31.27;;
22871;SDS011;11603;44.910;8.630;2022-12-07T10:44:22;47.20;;;30.67;;
22871;SDS011;11603;44.910;8.630;2022-12-07T10:47:01;46.92;;;30.38;;
22871;SDS011;11603;44.910;8.630;2022-12-07T10:50:08;42.47;;;29.48;;
22871;SDS011;11603;44.910;8.630;2022-12-07T10:52:46;47.45;;;31.27;;
22871;SDS011;11603;44.910;8.630;2022-12-07T11:18:01;53.10;;;34.13;;
22871;SDS011;11603;44.910;8.630;2022-12-07T11:24:16;50.33;;;33.67;;
22871;SDS011;11603;44.910;8.630;2022-12-07T11:26:34;51.00;;;34.33;;
22871;SDS011;11603;44.910;8.630;2022-12-07T11:32:12;51.60;;;34.28;;
22871;SDS011;11603;44.910;8.630;2022-12-07T11:35:02;49.83;;;33.80;;
22871;SDS011;11603;44.910;8.630;2022-12-07T11:37:34;51.60;;;35.15;;
22871;SDS011;11603;44.910;8.630;2022-12-07T11:40:03;50.75;;;33.45;;
22871;SDS011;11603;44.910;8.630;2022-12-07T11:42:42;48.08;;;33.25;;
22871;SDS011;11603;44.910;8.630;2022-12-07T11:45:15;48.25;;;33.03;;
22871;SDS011;11603;44.910;8.630;2022-12-07T11:55:41;51.03;;;34.80;;
22871;SDS011;11603;44.910;8.630;2022-12-07T12:03:45;47.53;;;32.85;;
22871;SDS011;11603;44.910;8.630;2022-12-07T12:06:12;46.25;;;32.00;;
22871;SDS011;11603;44.910;8.630;2022-12-07T12:08:43;51.40;;;32.38;;
22871;SDS011;11603;44.910;8.630;2022-12-07T12:11:35;46.45;;;32.67;;
22871;SDS011;11603;44.910;8.630;2022-12-07T12:22:18;49.03;;;33.03;;
22871;SDS011;11603;44.910;8.630;2022-12-07T12:24:48;47.28;;;32.92;;
22871;SDS011;11603;44.910;8.630;2022-12-07T12:27:20;48.53;;;33.15;;
22871;SDS011;11603;44.910;8.630;2022-12-07T12:30:07;48.35;;;32.70;;
22871;SDS011;11603;44.910;8.630;2022-12-07T12:32:49;46.00;;;33.53;;
22871;SDS011;11603;44.910;8.630;2022-12-07T12:38:25;48.58;;;33.03;;
22871;SDS011;11603;44.910;8.630;2022-12-07T12:40:53;48.33;;;32.38;;
22871;SDS011;11603;44.910;8.630;2022-12-07T12:48:55;43.30;;;31.75;;
22871;SDS011;11603;44.910;8.630;2022-12-07T12:51:40;52.30;;;34.25;;
22871;SDS011;11603;44.910;8.630;2022-12-07T12:54:26;48.60;;;33.40;;
22871;SDS011;11603;44.910;8.630;2022-12-07T12:56:55;48.65;;;33.35;;
22871;SDS011;11603;44.910;8.630;2022-12-07T12:59:26;46.67;;;33.97;;
22871;SDS011;11603;44.910;8.630;2022-12-07T13:01:56;44.83;;;33.65;;
22871;SDS011;11603;44.910;8.630;2022-12-07T13:06:52;45.35;;;33.97;;
22871;SDS011;11603;44.910;8.630;2022-12-07T13:09:28;45.05;;;34.33;;
22871;SDS011;11603;44.910;8.630;2022-12-07T13:11:58;49.20;;;32.92;;
22871;SDS011;11603;44.910;8.630;2022-12-07T13:19:56;46.95;;;34.70;;
22871;SDS011;11603;44.910;8.630;2022-12-07T13:25:18;52.88;;;35.88;;
22871;SDS011;11603;44.910;8.630;2022-12-07T13:27:47;55.20;;;36.28;;
22871;SDS011;11603;44.910;8.630;2022-12-07T13:30:20;48.20;;;35.45;;
22871;SDS011;11603;44.910;8.630;2022-12-07T13:32:56;52.03;;;35.70;;
22871;SDS011;11603;44.910;8.630;2022-12-07T13:35:35;49.47;;;35.22;;
22871;SDS011;11603;44.910;8.630;2022-12-07T13:43:29;53.97;;;36.28;;
22871;SDS011;11603;44.910;8.630;2022-12-07T13:45:56;50.72;;;35.75;;
22871;SDS011;11603;44.910;8.630;2022-12-07T13:48:33;52.20;;;36.20;;
22871;SDS011;11603;44.910;8.630;2022-12-07T13:51:02;54.33;;;36.40;;
22871;SDS011;11603;44.910;8.630;2022-12-07T13:53:29;61.95;;;39.78;;
22871;SDS011;11603;44.910;8.630;2022-12-07T13:55:58;50.67;;;36.67;;
22871;SDS011;11603;44.910;8.630;2022-12-07T13:58:25;52.42;;;36.13;;
22871;SDS011;11603;44.910;8.630;2022-12-07T14:00:55;54.08;;;37.80;;
22871;SDS011;11603;44.910;8.630;2022-12-07T14:03:31;54.85;;;37.88;;
22871;SDS011;11603;44.910;8.630;2022-12-07T14:06:15;51.58;;;36.67;;
22871;SDS011;11603;44.910;8.630;2022-12-07T14:08:41;54.72;;;37.70;;
22871;SDS011;11603;44.910;8.630;2022-12-07T14:11:08;52.08;;;37.65;;
22871;SDS011;11603;44.910;8.630;2022-12-07T14:13:40;51.75;;;36.75;;
22871;SDS011;11603;44.910;8.630;2022-12-07T14:18:43;50.67;;;34.95;;
22871;SDS011;11603;44.910;8.630;2022-12-07T14:23:34;52.33;;;37.88;;
22871;SDS011;11603;44.910;8.630;2022-12-07T14:28:33;52.35;;;37.35;;
22871;SDS011;11603;44.910;8.630;2022-12-07T14:31:01;54.25;;;38.42;;
22871;SDS011;11603;44.910;8.630;2022-12-07T14:33:27;53.90;;;37.78;;
22871;SDS011;11603;44.910;8.630;2022-12-07T14:35:53;56.95;;;38.60;;
22871;SDS011;11603;44.910;8.630;2022-12-07T14:38:24;56.58;;;38.97;;
22871;SDS011;11603;44.910;8.630;2022-12-07T14:40:50;57.38;;;37.60;;
22871;SDS011;11603;44.910;8.630;2022-12-07T14:43:17;56.22;;;39.13;;
22871;SDS011;11603;44.910;8.630;2022-12-07T14:45:44;51.08;;;35.47;;
22871;SDS011;11603;44.910;8.630;2022-12-07T14:48:11;51.97;;;37.30;;
22871;SDS011;11603;44.910;8.630;2022-12-07T14:50:38;54.72;;;37.10;;
22871;SDS011;11603;44.910;8.630;2022-12-07T14:55:47;55.83;;;38.35;;
22871;SDS011;11603;44.910;8.630;2022-12-07T14:58:16;51.90;;;37.22;;
22871;SDS011;11603;44.910;8.630;2022-12-07T15:00:42;53.97;;;37.58;;
22871;SDS011;11603;44.910;8.630;2022-12-07T15:03:08;50.40;;;35.67;;
22871;SDS011;11603;44.910;8.630;2022-12-07T15:05:34;56.50;;;37.85;;
22871;SDS011;11603;44.910;8.630;2022-12-07T15:08:01;57.65;;;36.80;;
22871;SDS011;11603;44.910;8.630;2022-12-07T15:10:28;54.25;;;37.20;;
22871;SDS011;11603;44.910;8.630;2022-12-07T15:13:00;53.40;;;36.25;;
22871;SDS011;11603;44.910;8.630;2022-12-07T15:15:46;57.63;;;37.17;;
22871;SDS011;11603;44.910;8.630;2022-12-07T15:18:13;59.45;;;39.28;;
22871;SDS011;11603;44.910;8.630;2022-12-07T15:20:39;54.60;;;37.55;;
22871;SDS011;11603;44.910;8.630;2022-12-07T15:23:05;56.83;;;37.55;;
22871;SDS011;11603;44.910;8.630;2022-12-07T15:25:31;58.47;;;37.72;;
22871;SDS011;11603;44.910;8.630;2022-12-07T15:27:56;61.05;;;38.40;;
22871;SDS011;11603;44.910;8.630;2022-12-07T15:30:22;59.95;;;38.00;;
22871;SDS011;11603;44.910;8.630;2022-12-07T15:32:51;57.97;;;37.75;;
22871;SDS011;11603;44.910;8.630;2022-12-07T15:35:17;58.00;;;38.47;;
22871;SDS011;11603;44.910;8.630;2022-12-07T15:37:43;56.72;;;37.97;;
22871;SDS011;11603;44.910;8.630;2022-12-07T15:40:08;57.08;;;37.58;;
22871;SDS011;11603;44.910;8.630;2022-12-07T15:42:35;57.45;;;38.33;;
22871;SDS011;11603;44.910;8.630;2022-12-07T15:45:01;70.97;;;45.35;;
22871;SDS011;11603;44.910;8.630;2022-12-07T15:47:30;61.15;;;41.00;;
22871;SDS011;11603;44.910;8.630;2022-12-07T15:50:01;62.50;;;40.70;;
22871;SDS011;11603;44.910;8.630;2022-12-07T15:52:28;58.20;;;38.83;;
22871;SDS011;11603;44.910;8.630;2022-12-07T15:54:53;59.80;;;39.65;;
22871;SDS011;11603;44.910;8.630;2022-12-07T15:57:19;60.92;;;39.53;;
22871;SDS011;11603;44.910;8.630;2022-12-07T15:59:44;68.30;;;39.30;;
22871;SDS011;11603;44.910;8.630;2022-12-07T16:02:10;58.72;;;39.72;;
22871;SDS011;11603;44.910;8.630;2022-12-07T16:04:35;60.47;;;39.47;;
22871;SDS011;11603;44.910;8.630;2022-12-07T16:07:01;60.28;;;39.13;;
22871;SDS011;11603;44.910;8.630;2022-12-07T16:09:27;60.05;;;39.25;;
22871;SDS011;11603;44.910;8.630;2022-12-07T16:11:53;62.72;;;40.40;;
22871;SDS011;11603;44.910;8.630;2022-12-07T16:14:18;61.03;;;40.17;;
22871;SDS011;11603;44.910;8.630;2022-12-07T16:16:44;60.22;;;38.03;;
22871;SDS011;11603;44.910;8.630;2022-12-07T16:19:10;59.60;;;38.33;;
22871;SDS011;11603;44.910;8.630;2022-12-07T16:21:36;63.17;;;39.70;;
22871;SDS011;11603;44.910;8.630;2022-12-07T16:24:02;61.15;;;40.40;;
22871;SDS011;11603;44.910;8.630;2022-12-07T16:26:28;59.97;;;39.97;;
22871;SDS011;11603;44.910;8.630;2022-12-07T16:28:54;62.45;;;39.97;;
22871;SDS011;11603;44.910;8.630;2022-12-07T16:31:23;63.88;;;41.70;;
22871;SDS011;11603;44.910;8.630;2022-12-07T16:33:52;60.67;;;39.47;;
22871;SDS011;11603;44.910;8.630;2022-12-07T16:36:19;63.60;;;41.35;;